Time;durP1;ratioP1;P1;durP2;ratioP2;P2;SDS_P1;SDS_P2;PMS_P1;PMS_P2;Temp;Humidity;BMP_temperature;BMP_pressure;BME280_temperature;BME280_humidity;BME280_pressure;Samples;Min_cycle;Max_cycle;Signal;HPM_P1;HPM_P2
2023/12/06 00:00:55;;;;;;;;;;;;;;;17.89;60.82;98130.38;2082095;28;20676;-67
2023/12/06 00:01:58;;;;;;;9.98;6.22;;;;;;;17.90;60.77;98127.47;2082183;28;20006;-67
2023/12/06 00:02:58;;;;;;;9.90;6.03;;;;;;;17.94;60.49;98127.84;2081863;28;20102;-67
2023/12/06 00:04:00;;;;;;;;;;;;;;;17.88;60.58;98129.53;2082559;28;20114;-66
2023/12/06 00:05:01;;;;;;;;;;;;;;;17.79;60.88;98128.94;2082599;28;20548;-67
2023/12/06 00:06:03;;;;;;;10.73;6.20;;;;;;;17.86;60.73;98118.19;2078896;28;19978;-67
2023/12/06 00:07:04;;;;;;;13.05;6.70;;;;;;;17.92;60.43;98125.41;2079594;28;20132;-67
2023/12/06 00:08:05;;;;;;;;;;;;;;;17.83;60.85;98121.31;2081313;28;20822;-68
2023/12/06 00:09:07;;;;;;;11.40;5.82;;;;;;;17.88;60.70;98121.47;2082343;28;19921;-67
2023/12/06 00:10:08;;;;;;;8.55;6.55;;;;;;;17.91;60.63;98123.72;2083045;28;20122;-67
2023/12/06 00:11:09;;;;;;;12.52;6.78;;;;;;;17.93;60.42;98126.22;2082703;28;20542;-67
2023/12/06 00:12:12;;;;;;;;;;;;;;;17.83;60.66;98121.31;2083968;28;20053;-66
2023/12/06 00:13:13;;;;;;;9.40;6.93;;;;;;;17.85;60.85;98116.53;2085012;28;19932;-67
2023/12/06 00:14:15;;;;;;;;;;;;;;;17.78;60.92;98111.19;2082157;28;20052;-67
2023/12/06 00:15:16;;;;;;;9.35;5.85;;;;;;;17.84;60.58;98117.59;2083401;28;19974;-67
2023/12/06 00:16:18;;;;;;;;;;;;;;;17.75;60.88;98113.47;2081699;28;20049;-67
2023/12/06 00:17:19;;;;;;;7.57;6.03;;;;;;;17.80;60.74;98114.50;2083391;28;19925;-66
2023/12/06 00:18:21;;;;;;;;;;;;;;;17.75;60.76;98118.81;2083481;28;20098;-67
2023/12/06 00:19:22;;;;;;;12.65;6.93;;;;;;;17.78;60.66;98121.94;2081038;28;19968;-69
2023/12/06 00:20:24;;;;;;;10.32;6.63;;;;;;;17.81;60.64;98115.31;2079796;28;20044;-67
2023/12/06 00:21:25;;;;;;;10.25;6.05;;;;;;;17.82;60.45;98125.81;2082397;28;20103;-67
2023/12/06 00:22:27;;;;;;;;;;;;;;;17.71;60.83;98113.03;2083557;28;20045;-67
2023/12/06 00:23:28;;;;;;;10.40;6.82;;;;;;;17.76;60.65;98120.47;2082899;28;19920;-67
2023/12/06 00:24:30;;;;;;;;;;;;;;;17.65;60.93;98112.00;2078505;28;20146;-67
2023/12/06 00:25:30;;;;;;;11.18;6.28;;;;;;;17.72;60.84;98111.16;2081241;28;19925;-67
2023/12/06 00:26:31;;;;;;;;;;;;;;;17.65;61.11;98114.69;2082172;28;20053;-67
2023/12/06 00:27:34;;;;;;;12.07;6.67;;;;;;;17.71;60.78;98114.91;2083153;28;19939;-67
2023/12/06 00:28:35;;;;;;;11.55;6.65;;;;;;;17.74;60.65;98120.66;2082283;28;20107;-67
2023/12/06 00:29:37;;;;;;;;;;;;;;;17.64;60.76;98110.38;2080755;28;20554;-69
2023/12/06 00:30:38;;;;;;;9.13;6.22;;;;;;;17.69;60.93;98108.91;2082009;28;19928;-67
2023/12/06 00:31:40;;;;;;;;;;;;;;;17.62;60.93;98117.81;2083829;28;20098;-67
2023/12/06 00:32:41;;;;;;;9.73;5.68;;;;;;;17.68;60.81;98110.78;2081728;28;19929;-68
2023/12/06 00:33:42;;;;;;;;;;;;;;;17.62;60.81;98114.31;2082218;28;20099;-66
2023/12/06 00:34:43;;;;;;;;;;;;;;;17.55;60.98;98114.31;2084335;28;20424;-67
2023/12/06 00:35:45;;;;;;;11.40;5.88;;;;;;;17.61;60.88;98113.47;2082462;28;19920;-68
2023/12/06 00:36:47;;;;;;;8.85;6.40;;;;;;;17.67;60.83;98119.03;2083652;28;20079;-67
2023/12/06 00:37:49;;;;;;;9.70;6.57;;;;;;;17.69;60.55;98119.63;2078856;28;20052;-69
2023/12/06 00:38:52;;;;;;;10.75;6.35;;;;;;;17.70;60.70;98115.94;2078861;28;20146;-68
2023/12/06 00:39:54;;;;;;;8.50;5.85;;;;;;;17.70;60.64;98115.94;2081550;28;20053;-67
2023/12/06 00:40:55;;;;;;;9.18;5.70;;;;;;;17.68;60.55;98115.31;2081866;28;20569;-67
2023/12/06 00:41:57;;;;;;;12.57;6.80;;;;;;;17.68;60.57;98123.38;2081149;28;20418;-67
2023/12/06 00:42:59;;;;;;;9.82;6.18;;;;;;;17.69;60.55;98116.97;2078117;28;20049;-67
2023/12/06 00:44:03;;;;;;;9.30;6.40;;;;;;;17.69;60.62;98122.31;2082020;28;20071;-68
2023/12/06 00:45:04;;;;;;;9.30;5.50;;;;;;;17.67;60.47;98119.88;2080965;28;20150;-68
2023/12/06 00:46:06;;;;;;;8.07;5.95;;;;;;;17.64;60.51;98118.44;2084978;28;20052;-68
2023/12/06 00:47:07;;;;;;;9.95;7.15;;;;;;;17.65;60.61;98121.94;2082196;28;20049;-67
2023/12/06 00:48:09;;;;;;;;;;;;;;;17.53;60.93;98119.06;2082439;28;20511;-67
2023/12/06 00:49:10;;;;;;;10.90;6.07;;;;;;;17.56;60.71;98118.66;2078258;28;20032;-67
2023/12/06 00:50:12;;;;;;;9.00;6.43;;;;;;;17.60;60.64;98119.88;2078773;28;20142;-67
2023/12/06 00:51:13;;;;;;;10.02;5.65;;;;;;;17.61;60.63;98120.72;2085144;28;20049;-67
2023/12/06 00:52:15;;;;;;;;;;;;;;;17.49;60.93;98128.53;2083045;28;20107;-66
2023/12/06 00:53:16;;;;;;;9.27;6.07;;;;;;;17.50;60.95;98124.84;2080815;28;19987;-68
2023/12/06 00:54:17;;;;;;;;;;;;;;;17.39;60.99;98128.16;2084200;28;20100;-67
2023/12/06 00:55:18;;;;;;;10.50;5.93;;;;;;;17.43;61.21;98126.69;2081720;28;20333;-67
2023/12/06 00:56:19;;;;;;;10.70;6.80;;;;;;;17.47;61.08;98132.47;2085364;28;20044;-68
2023/12/06 00:57:21;;;;;;;;;;;;;;;17.35;61.13;98132.28;2083818;28;20071;-66
2023/12/06 00:58:23;;;;;;;9.15;5.88;;;;;;;17.39;61.13;98131.66;2086537;28;19959;-68
2023/12/06 00:59:25;;;;;;;11.75;6.20;;;;;;;17.38;61.21;98130.03;2083629;28;20522;-67
2023/12/06 01:00:27;;;;;;;8.68;5.68;;;;;;;17.45;61.01;98139.91;2084447;28;20052;-66
2023/12/06 01:01:29;;;;;;;7.60;4.90;;;;;;;17.43;61.05;98132.88;2084370;28;20056;-68
2023/12/06 01:02:30;;;;;;;9.00;5.55;;;;;;;17.43;60.90;98135.56;2085912;28;20053;-67
2023/12/06 01:03:31;;;;;;;;;;;;;;;17.31;61.25;98141.78;2085577;28;20106;-67
2023/12/06 01:04:36;;;;;;;9.40;5.60;;;;;;;17.34;61.24;98136.00;2082490;28;19978;-67
2023/12/06 01:05:37;;;;;;;8.27;5.30;;;;;;;17.35;61.13;98134.97;2085148;28;20062;-67
2023/12/06 01:06:38;;;;;;;9.27;6.10;;;;;;;17.38;61.10;98137.22;2080019;28;20053;-67
2023/12/06 01:07:40;;;;;;;;;;;;;;;17.25;61.40;98129.22;2082276;28;20099;-67
2023/12/06 01:08:41;;;;;;;8.48;4.78;;;;;;;17.30;61.38;98126.72;2082581;28;19921;-67
2023/12/06 01:09:43;;;;;;;;;;;;;;;17.20;61.47;98122.59;2083777;28;20060;-68
2023/12/06 01:10:44;;;;;;;8.02;6.15;;;;;;;17.23;61.59;98128.59;2082553;28;19973;-67
2023/12/06 01:11:45;;;;;;;;;;;;;;;17.13;61.78;98131.66;2084793;28;21678;-67
2023/12/06 01:12:46;;;;;;;10.13;6.15;;;;;;;17.20;61.53;98130.63;2085204;28;19920;-67
2023/12/06 01:13:48;;;;;;;;;;;;;;;17.13;61.59;98129.84;2087921;28;20117;-67
2023/12/06 01:14:50;;;;;;;7.85;5.72;;;;;;;17.18;61.53;98132.69;2084915;28;20120;-67
2023/12/06 01:15:51;;;;;;;9.70;6.20;;;;;;;17.22;61.39;98129.59;2085318;28;20053;-67
2023/12/06 01:16:53;;;;;;;;;;;;;;;17.11;61.71;98129.22;2083274;28;20076;-67
2023/12/06 01:17:54;;;;;;;7.85;5.78;;;;;;;17.16;61.54;98129.41;2086132;28;19928;-67
2023/12/06 01:18:55;;;;;;;;;;;;;;;17.07;61.68;98133.31;2083705;28;20580;-66
2023/12/06 01:19:57;;;;;;;7.28;5.32;;;;;;;17.10;61.61;98132.91;2080734;28;20461;-68
2023/12/06 01:20:59;;;;;;;;;;;;;;;17.05;61.77;98134.53;2083770;28;20049;-69
2023/12/06 01:21:59;;;;;;;8.48;5.45;;;;;;;17.09;61.80;98139.31;2083484;28;20402;-67
2023/12/06 01:23:01;;;;;;;;;;;;;;;17.02;61.92;98133.13;2085103;28;20060;-67
2023/12/06 01:24:02;;;;;;;9.20;5.57;;;;;;;17.09;61.64;98133.94;2082914;28;19929;-67
2023/12/06 01:25:04;;;;;;;10.25;5.88;;;;;;;17.16;61.33;98133.94;2078496;28;20455;-67
2023/12/06 01:26:06;;;;;;;9.13;5.47;;;;;;;17.15;61.57;98127.75;2081727;28;20049;-67
2023/12/06 01:27:07;;;;;;;8.98;5.88;;;;;;;17.15;61.38;98134.97;2079526;28;20050;-68
2023/12/06 01:28:09;;;;;;;;;;;;;;;17.03;61.66;98131.28;2084912;28;20123;-67
2023/12/06 01:29:11;;;;;;;;;;;;;;;16.96;61.96;98144.63;2081232;28;19925;-67
2023/12/06 01:30:13;;;;;;;8.45;5.18;;;;;;;17.02;61.89;98138.50;2081717;28;19928;-67
2023/12/06 01:31:14;;;;;;;7.32;5.72;;;;;;;17.10;61.47;98146.28;2082820;28;20045;-67
2023/12/06 01:32:15;;;;;;;;;;;;;;;16.99;61.82;98141.53;2084259;28;20087;-67
2023/12/06 01:33:17;;;;;;;12.60;6.13;;;;;;;17.03;61.70;98137.44;2085274;28;19982;-67
2023/12/06 01:34:19;;;;;;;7.38;5.30;;;;;;;17.06;61.59;98134.34;2081862;28;20507;-67
2023/12/06 01:35:20;;;;;;;8.18;5.65;;;;;;;17.08;61.45;98140.34;2084686;28;20060;-66
2023/12/06 01:36:21;;;;;;;;;;;;;;;16.97;61.61;98139.09;2083258;28;20095;-67
2023/12/06 01:37:22;;;;;;;10.05;6.25;;;;;;;17.03;61.61;98140.13;2082990;28;19929;-67
2023/12/06 01:38:23;;;;;;;;;;;;;;;16.94;61.75;98136.81;2085112;28;20103;-67
2023/12/06 01:39:25;;;;;;;9.40;5.60;;;;;;;16.98;61.67;98137.22;2081548;28;19932;-67
2023/12/06 01:40:26;;;;;;;7.15;4.85;;;;;;;17.03;61.52;98140.13;2081739;28;20292;-68
2023/12/06 01:41:28;;;;;;;6.60;5.20;;;;;;;17.07;61.48;98136.00;2082300;28;20049;-69
2023/12/06 01:42:29;;;;;;;8.38;5.93;;;;;;;17.09;61.27;98128.56;2078913;28;20056;-66
2023/12/06 01:43:31;;;;;;;;;;;;;;;16.97;61.63;98125.69;2085298;28;20049;-67
2023/12/06 01:44:33;;;;;;;8.43;5.43;;;;;;;17.02;61.59;98125.09;2079952;28;19924;-67
2023/12/06 01:45:35;;;;;;;11.18;6.70;;;;;;;17.03;61.57;98131.28;2082135;28;20103;-68
2023/12/06 01:46:38;;;;;;;8.75;5.03;;;;;;;17.05;61.30;98132.72;2080742;28;20045;-67
2023/12/06 01:47:40;;;;;;;8.57;5.63;;;;;;;17.08;61.24;98131.47;2081389;28;20071;-67
2023/12/06 01:48:44;;;;;;;6.53;4.40;;;;;;;17.08;61.23;98132.31;2080594;28;20052;-67
2023/12/06 01:49:46;;;;;;;10.45;6.40;;;;;;;17.06;61.29;98128.19;2081729;28;20064;-67
2023/12/06 01:50:50;;;;;;;9.95;5.68;;;;;;;17.06;61.26;98125.50;2080211;28;20048;-67
2023/12/06 01:51:51;;;;;;;6.78;4.45;;;;;;;17.04;61.41;98130.22;2079150;28;20052;-67
2023/12/06 01:52:58;;;;;;;9.50;5.55;;;;;;;17.07;61.22;98133.31;2080254;28;20048;-67
2023/12/06 01:53:58;;;;;;;7.57;4.60;;;;;;;17.04;61.30;98131.03;2081169;28;20048;-67
2023/12/06 01:55:00;;;;;;;;;;;;;;;16.94;61.50;98127.97;2084403;28;20448;-68
2023/12/06 01:56:02;;;;;;;8.15;5.30;;;;;;;16.96;61.51;98133.94;2083844;28;19920;-67
2023/12/06 01:57:05;;;;;;;9.88;6.05;;;;;;;16.99;61.38;98128.16;2083563;28;20060;-67
2023/12/06 01:58:06;;;;;;;7.35;4.07;;;;;;;17.01;61.47;98130.66;2081984;28;20818;-68
2023/12/06 01:59:08;;;;;;;;;;;;;;;16.90;61.68;98132.06;2080570;28;20080;-67
2023/12/06 02:00:12;;;;;;;8.07;5.40;;;;;;;16.92;61.56;98127.34;2083685;28;19946;-67
2023/12/06 02:01:15;;;;;;;7.97;5.05;;;;;;;16.94;61.37;98130.66;2081837;28;20052;-67
2023/12/06 02:02:16;;;;;;;6.65;4.63;;;;;;;16.95;61.38;98132.28;2083749;28;20052;-68
2023/12/06 02:03:18;;;;;;;;;;;;;;;16.85;61.63;98138.03;2083136;28;20507;-67
2023/12/06 02:04:19;;;;;;;7.50;5.38;;;;;;;16.88;61.61;98132.28;2083437;28;19925;-68
2023/12/06 02:05:21;;;;;;;;;;;;;;;16.80;61.79;98137.84;2084040;28;20154;-67
2023/12/06 02:06:22;;;;;;;9.52;5.93;;;;;;;16.87;61.56;98135.97;2079531;28;19929;-68
2023/12/06 02:07:24;;;;;;;;;;;;;;;16.80;61.69;98135.16;2082602;28;20110;-67
2023/12/06 02:08:25;;;;;;;6.47;4.47;;;;;;;16.85;61.66;98137.22;2081464;28;19929;-67
2023/12/06 02:09:27;;;;;;;;;;;;;;;16.78;61.83;98136.41;2080930;28;20049;-67
2023/12/06 02:10:28;;;;;;;6.15;4.43;;;;;;;16.82;61.79;98132.25;2081446;28;19951;-66
2023/12/06 02:11:30;;;;;;;;;;;;;;;16.72;61.96;98138.00;2083775;28;20115;-67
2023/12/06 02:12:31;;;;;;;6.07;4.85;;;;;;;16.80;61.80;98142.34;2082040;28;19994;-67
2023/12/06 02:13:33;;;;;;;;;;;;;;;16.75;61.73;98138.41;2084811;28;20106;-67
2023/12/06 02:14:35;;;;;;;8.10;5.05;;;;;;;16.79;61.72;98132.69;2081827;28;20584;-67
2023/12/06 02:15:37;;;;;;;7.95;4.72;;;;;;;16.83;61.54;98131.25;2083609;28;20418;-67
2023/12/06 02:16:40;;;;;;;7.20;4.70;;;;;;;16.83;61.56;98129.41;2085210;28;20137;-67
2023/12/06 02:17:42;;;;;;;8.02;5.55;;;;;;;16.83;61.58;98134.75;2082392;28;20114;-67
2023/12/06 02:18:43;;;;;;;8.07;5.47;;;;;;;16.85;61.46;98127.31;2084389;28;20478;-67
2023/12/06 02:19:46;;;;;;;7.55;4.88;;;;;;;16.85;61.46;98126.50;2083176;28;20045;-67
2023/12/06 02:20:47;;;;;;;8.20;5.18;;;;;;;16.86;61.34;98128.97;2082379;28;20057;-68
2023/12/06 02:21:50;;;;;;;8.77;5.35;;;;;;;16.84;61.46;98119.50;2080897;28;20048;-67
2023/12/06 02:22:53;;;;;;;8.63;4.95;;;;;;;16.82;61.58;98125.06;2081938;28;20086;-67
2023/12/06 02:23:58;;;;;;;8.85;5.40;;;;;;;16.83;61.46;98128.56;2081659;28;20038;-67
2023/12/06 02:25:01;;;;;;;8.40;4.53;;;;;;;16.79;61.54;98116.59;2082108;28;20151;-67
2023/12/06 02:26:05;;;;;;;6.80;5.03;;;;;;;16.83;61.42;98123.22;2081616;28;20489;-67
2023/12/06 02:27:06;;;;;;;7.30;5.45;;;;;;;16.80;61.47;98119.09;2083424;28;20098;-68
2023/12/06 02:28:08;;;;;;;;;;;;;;;16.68;61.73;98126.84;2083176;28;20053;-67
2023/12/06 02:29:09;;;;;;;7.97;5.40;;;;;;;16.71;61.67;98120.25;2085082;28;19921;-67
2023/12/06 02:30:10;;;;;;;;;;;;;;;16.62;62.02;98116.97;2084586;28;20080;-67
2023/12/06 02:31:11;;;;;;;6.80;5.22;;;;;;;16.66;61.85;98118.22;2082942;28;20418;-68
2023/12/06 02:32:12;;;;;;;6.78;4.55;;;;;;;16.72;61.69;98121.94;2080314;28;20045;-67
2023/12/06 02:33:14;;;;;;;;;;;;;;;16.61;61.92;98128.72;2082563;28;20079;-67
2023/12/06 02:34:19;;;;;;;7.22;4.30;;;;;;;16.66;61.68;98123.56;2085187;28;19921;-67
2023/12/06 02:35:26;;;;;;;7.55;4.78;;;;;;;16.73;61.55;98127.06;2084603;28;20051;-67
2023/12/06 02:36:29;;;;;;;9.65;5.45;;;;;;;16.71;61.47;98131.78;2081164;28;20072;-67
2023/12/06 02:37:32;;;;;;;7.28;4.78;;;;;;;16.73;61.42;98126.25;2082839;28;20055;-67
2023/12/06 02:38:33;;;;;;;7.07;4.75;;;;;;;16.70;61.49;98135.50;2081460;28;20052;-69
2023/12/06 02:39:35;;;;;;;;;;;;;;;16.58;61.90;98129.13;2079895;28;20064;-67
2023/12/06 02:40:39;;;;;;;5.70;4.50;;;;;;;16.62;61.84;98132.19;2079547;28;19925;-67
2023/12/06 02:41:43;;;;;;;7.00;4.88;;;;;;;16.64;61.77;98136.34;2079903;28;20499;-67
2023/12/06 02:42:44;;;;;;;7.03;5.18;;;;;;;16.65;61.73;98137.97;2084772;28;20613;-67
2023/12/06 02:43:46;;;;;;;;;;;;;;;16.52;62.05;98128.06;2083141;28;20049;-67
2023/12/06 02:44:47;;;;;;;8.48;5.18;;;;;;;16.55;62.00;98134.88;2082058;28;19951;-66
2023/12/06 02:45:48;;;;;;;;;;;;;;;16.49;62.08;98132.97;2084869;28;20098;-69
2023/12/06 02:46:49;;;;;;;7.30;5.10;;;;;;;16.54;62.09;98127.84;2080166;28;20410;-67
2023/12/06 02:47:51;;;;;;;;;;;;;;;16.47;62.16;98133.19;2082653;28;20060;-68
2023/12/06 02:48:52;;;;;;;6.50;5.03;;;;;;;16.51;62.09;98125.59;2081399;28;19959;-67
2023/12/06 02:49:53;;;;;;;;;;;;;;;16.42;62.21;98122.28;2078494;28;20052;-66
2023/12/06 02:50:55;;;;;;;8.57;5.82;;;;;;;16.48;62.10;98126.00;2082223;28;19955;-67
2023/12/06 02:51:56;;;;;;;6.90;4.57;;;;;;;16.54;61.92;98122.50;2078654;28;20060;-67
2023/12/06 02:52:57;;;;;;;;;;;;;;;16.44;62.06;98124.75;2082714;28;20052;-67
2023/12/06 02:53:58;;;;;;;5.45;4.53;;;;;;;16.46;62.13;98128.03;2084135;28;20452;-67
2023/12/06 02:54:59;;;;;;;;;;;;;;;16.39;62.17;98119.19;2082293;28;20051;-67
2023/12/06 02:56:01;;;;;;;6.60;5.00;;;;;;;16.44;62.10;98124.75;2084423;28;19973;-67
2023/12/06 02:57:03;;;;;;;8.82;6.35;;;;;;;16.51;61.90;98121.06;2083661;28;20045;-67
2023/12/06 02:58:05;;;;;;;7.70;4.95;;;;;;;16.51;61.91;98120.22;2083536;28;20069;-68
2023/12/06 02:59:06;;;;;;;9.00;5.25;;;;;;;16.53;61.68;98115.50;2080354;28;20046;-68
2023/12/06 03:00:09;;;;;;;7.35;4.60;;;;;;;16.54;61.76;98117.16;2081515;28;20045;-67
2023/12/06 03:01:11;;;;;;;5.65;4.43;;;;;;;16.56;61.73;98123.13;2083558;28;20128;-67
2023/12/06 03:02:12;;;;;;;8.10;5.82;;;;;;;16.57;61.74;98123.94;2083359;28;20038;-68
2023/12/06 03:03:14;;;;;;;;;;;;;;;16.43;61.95;98115.88;2084468;28;20099;-67
2023/12/06 03:04:14;;;;;;;6.45;4.50;;;;;;;16.47;62.00;98116.31;2083311;28;19985;-67
2023/12/06 03:05:16;;;;;;;;;;;;;;;16.35;62.19;98120.59;2084705;28;20063;-67
2023/12/06 03:06:17;;;;;;;6.07;4.65;;;;;;;16.39;62.18;98121.84;2082388;28;19929;-67
2023/12/06 03:07:19;;;;;;;;;;;;;;;16.28;62.42;98121.41;2083264;28;20041;-65
2023/12/06 03:08:20;;;;;;;6.28;4.45;;;;;;;16.39;62.18;98124.53;2083008;28;19935;-66
2023/12/06 03:09:21;;;;;;;;;;;;;;;16.30;62.34;98124.72;2082055;28;20048;-67
2023/12/06 03:10:22;;;;;;;;;;;;;;;16.23;62.53;98123.84;2081322;28;19928;-67
2023/12/06 03:11:24;;;;;;;7.22;5.60;;;;;;;16.30;62.43;98124.72;2084980;28;20292;-67
2023/12/06 03:12:26;;;;;;;6.75;4.35;;;;;;;16.37;62.13;98122.03;2083209;28;20099;-67
2023/12/06 03:13:27;;;;;;;8.73;5.85;;;;;;;16.41;62.00;98125.13;2084281;28;20056;-67
2023/12/06 03:14:29;;;;;;;;;;;;;;;16.28;62.38;98118.72;2084520;28;20728;-67
2023/12/06 03:15:29;;;;;;;;;;;;;;;16.22;62.46;98122.22;2083974;28;19929;-67
2023/12/06 03:16:31;;;;;;;5.40;4.38;;;;;;;16.27;62.51;98119.75;2082321;28;19928;-67
2023/12/06 03:17:32;;;;;;;5.95;4.45;;;;;;;16.35;62.16;98123.28;2082130;28;20111;-69
2023/12/06 03:18:35;;;;;;;;;;;;;;;16.26;62.32;98117.28;2081045;28;20083;-67
2023/12/06 03:19:36;;;;;;;7.07;4.50;;;;;;;16.33;62.16;98123.50;2082779;28;19920;-68
2023/12/06 03:20:38;;;;;;;6.60;4.38;;;;;;;16.37;62.11;98113.19;2079772;28;20063;-67
2023/12/06 03:21:39;;;;;;;5.00;4.32;;;;;;;16.38;61.90;98121.03;2080504;28;20048;-67
2023/12/06 03:22:41;;;;;;;;;;;;;;;16.26;62.28;98115.41;2082285;28;20412;-68
2023/12/06 03:23:42;;;;;;;4.93;4.25;;;;;;;16.33;62.10;98118.13;2083482;28;19937;-67
2023/12/06 03:24:43;;;;;;;;;;;;;;;16.25;62.21;98123.66;2082716;28;20054;-67
2023/12/06 03:25:44;;;;;;;;;;;;;;;16.20;62.38;98124.25;2083104;28;19920;-67
2023/12/06 03:26:45;;;;;;;7.40;4.97;;;;;;;16.29;62.29;98125.72;2081865;28;19921;-67
2023/12/06 03:27:48;;;;;;;;;;;;;;;16.20;62.30;98129.59;2081228;28;20099;-67
2023/12/06 03:28:49;;;;;;;6.85;5.03;;;;;;;16.27;62.01;98125.13;2079912;28;20453;-67
2023/12/06 03:29:51;;;;;;;;;;;;;;;16.24;62.20;98127.34;2081305;28;20091;-68
2023/12/06 03:30:52;;;;;;;7.07;4.80;;;;;;;16.30;62.12;98127.38;2081605;28;19924;-67
2023/12/06 03:31:53;;;;;;;;;;;;;;;16.23;62.19;98133.72;2084125;28;20515;-67
2023/12/06 03:32:54;;;;;;;5.85;4.07;;;;;;;16.30;62.01;98129.25;2085051;28;19970;-67
2023/12/06 03:33:56;;;;;;;;;;;;;;;16.21;62.21;98125.91;2082012;28;21623;-67
2023/12/06 03:34:57;;;;;;;5.88;4.47;;;;;;;16.27;62.20;98118.94;2083529;28;19928;-67
2023/12/06 03:35:59;;;;;;;;;;;;;;;16.23;62.11;98129.19;2083185;28;20102;-66
2023/12/06 03:37:00;;;;;;;5.30;3.63;;;;;;;16.27;62.04;98124.31;2079591;28;21859;-67
2023/12/06 03:38:02;;;;;;;5.65;3.88;;;;;;;16.30;61.78;98130.06;2082215;28;20068;-67
2023/12/06 03:39:04;;;;;;;7.22;4.13;;;;;;;16.34;61.75;98127.81;2079970;28;20427;-67
2023/12/06 03:40:07;;;;;;;8.13;4.88;;;;;;;16.38;61.63;98118.38;2082308;28;20045;-68
2023/12/06 03:41:08;;;;;;;5.40;4.47;;;;;;;16.39;61.52;98121.84;2082057;28;20151;-69
2023/12/06 03:42:10;;;;;;;8.50;4.85;;;;;;;16.38;61.80;98126.41;2082323;28;20474;-67
2023/12/06 03:43:12;;;;;;;4.65;3.97;;;;;;;16.36;61.57;98125.75;2082027;28;20120;-67
2023/12/06 03:44:14;;;;;;;7.25;5.28;;;;;;;16.35;61.66;98133.97;2083230;28;20107;-67
2023/12/06 03:45:15;;;;;;;6.95;4.43;;;;;;;16.34;61.76;98130.47;2080411;28;20049;-67
2023/12/06 03:46:16;;;;;;;;;;;;;;;16.24;61.83;98138.06;2079425;28;20045;-67
2023/12/06 03:47:18;;;;;;;5.53;3.63;;;;;;;16.27;61.90;98135.81;2080308;28;20260;-67
2023/12/06 03:48:19;;;;;;;6.60;4.65;;;;;;;16.31;61.72;98134.38;2081111;28;20102;-67
2023/12/06 03:49:21;;;;;;;;;;;;;;;16.17;62.06;98130.00;2081718;28;20052;-67
2023/12/06 03:50:22;;;;;;;6.80;4.95;;;;;;;16.24;62.01;98133.56;2082522;28;19975;-67
2023/12/06 03:51:23;;;;;;;;;;;;;;;16.18;62.05;98133.50;2079690;28;20107;-67
2023/12/06 03:52:24;;;;;;;5.60;4.25;;;;;;;16.24;61.95;98133.56;2076137;28;19921;-67
2023/12/06 03:53:26;;;;;;;;;;;;;;;16.13;62.13;98128.78;2081298;28;20057;-68
2023/12/06 03:54:27;;;;;;;;;;;;;;;16.08;62.38;98126.69;2083201;28;19982;-67
2023/12/06 03:55:29;;;;;;;5.13;4.47;;;;;;;16.17;62.18;98132.69;2080236;28;19920;-68
2023/12/06 03:56:30;;;;;;;7.32;4.95;;;;;;;16.21;62.12;98125.91;2082608;28;20045;-67
2023/12/06 03:57:31;;;;;;;;;;;;;;;16.18;61.98;98125.47;2082444;28;20569;-67
2023/12/06 03:58:34;;;;;;;7.50;4.87;;;;;;;16.18;62.04;98128.16;2082110;28;19946;-67
2023/12/06 03:59:35;;;;;;;6.95;4.57;;;;;;;16.22;62.00;98127.56;2083176;28;20072;-67
2023/12/06 04:00:38;;;;;;;;;;;;;;;16.13;62.16;98125.25;2082106;28;20053;-67
2023/12/06 04:01:42;;;;;;;5.13;3.72;;;;;;;16.20;61.88;98129.59;2083401;28;19924;-67
2023/12/06 04:02:44;;;;;;;5.35;4.43;;;;;;;16.20;61.93;98126.94;2081368;28;20484;-67
2023/12/06 04:03:45;;;;;;;5.15;3.53;;;;;;;16.23;61.74;98126.53;2084294;28;20404;-67
2023/12/06 04:04:47;;;;;;;;;;;;;;;16.11;62.15;98130.00;2083278;28;20090;-67
2023/12/06 04:05:48;;;;;;;;;;;;;;;16.03;62.34;98141.69;2082055;28;20406;-67
2023/12/06 04:06:50;;;;;;;7.30;3.97;;;;;;;16.12;62.12;98135.13;2080259;28;19970;-67
2023/12/06 04:07:50;;;;;;;6.07;4.13;;;;;;;16.16;62.04;98141.75;2083151;28;20114;-67
2023/12/06 04:08:51;;;;;;;;;;;;;;;16.08;62.16;98141.91;2084269;28;20109;-67
2023/12/06 04:09:53;;;;;;;4.47;3.50;;;;;;;16.16;62.13;98139.06;2080069;28;19917;-68
2023/12/06 04:10:54;;;;;;;5.07;3.33;;;;;;;16.28;61.67;98142.00;2081948;28;20564;-67
2023/12/06 04:11:56;;;;;;;5.15;3.53;;;;;;;16.40;61.25;98139.56;2081788;28;20415;-67
2023/12/06 04:12:57;;;;;;;6.57;4.72;;;;;;;16.50;60.85;98134.66;2083626;28;20148;-67
2023/12/06 04:13:59;;;;;;;;;;;;;;;16.50;61.02;98142.69;2082716;28;20143;-67
2023/12/06 04:15:01;;;;;;;6.45;4.18;;;;;;;16.56;60.91;98139.19;2082913;28;19974;-67
2023/12/06 04:16:04;;;;;;;4.97;3.35;;;;;;;16.65;60.66;98139.81;2081810;28;20045;-67
2023/12/06 04:17:07;;;;;;;5.18;3.20;;;;;;;16.70;60.53;98135.50;2081645;28;20051;-67
2023/12/06 04:18:08;;;;;;;7.63;4.43;;;;;;;16.77;60.27;98138.25;2081865;28;20057;-67
2023/12/06 04:19:10;;;;;;;;;;;;;;;16.74;60.62;98133.25;2081897;28;20071;-67
2023/12/06 04:20:11;;;;;;;7.82;4.70;;;;;;;16.79;60.72;98136.19;2079838;28;19933;-67
2023/12/06 04:21:13;;;;;;;5.55;3.80;;;;;;;16.86;60.57;98138.88;2082425;28;20059;-68
2023/12/06 04:22:14;;;;;;;5.72;3.80;;;;;;;16.89;60.44;98128.56;2080053;28;20099;-67
2023/12/06 04:23:15;;;;;;;;;;;;;;;16.86;60.55;98138.88;2081453;28;20561;-67
2023/12/06 04:24:16;;;;;;;;;;;;;;;16.84;60.79;98136.38;2082786;28;20421;-67
2023/12/06 04:25:18;;;;;;;4.72;4.13;;;;;;;16.91;60.77;98136.38;2082407;28;19940;-67
2023/12/06 04:26:19;;;;;;;5.82;4.05;;;;;;;16.98;60.62;98139.91;2078562;28;20482;-67
2023/12/06 04:27:21;;;;;;;;;;;;;;;16.94;60.70;98138.69;2081708;28;20052;-67
2023/12/06 04:28:21;;;;;;;5.40;3.45;;;;;;;17.01;60.66;98144.03;2078394;28;19939;-67
2023/12/06 04:29:25;;;;;;;;;;;;;;;16.98;60.62;98148.75;2082259;28;20114;-67
2023/12/06 04:30:25;;;;;;;5.18;3.58;;;;;;;17.05;60.58;98143.44;2084540;28;19920;-68
2023/12/06 04:31:27;;;;;;;;;;;;;;;17.04;60.55;98147.13;2082620;28;20053;-67
2023/12/06 04:32:28;;;;;;;5.53;3.42;;;;;;;17.11;60.47;98147.16;2082422;28;20323;-67
2023/12/06 04:33:30;;;;;;;;;;;;;;;17.10;60.58;98151.66;2084248;28;20053;-67
2023/12/06 04:34:32;;;;;;;;;;;;;;;17.07;60.67;98149.38;2084298;28;19978;-67
2023/12/06 04:35:33;;;;;;;6.45;4.68;;;;;;;17.13;60.52;98145.91;2083390;28;19928;-67
2023/12/06 04:36:34;;;;;;;;;;;;;;;17.13;60.50;98148.59;2082551;28;20653;-68
2023/12/06 04:37:35;;;;;;;5.28;3.60;;;;;;;17.22;60.38;98143.00;2082839;28;19974;-68
2023/12/06 04:38:37;;;;;;;;;;;;;;;17.23;60.48;98141.97;2080854;28;20053;-67
2023/12/06 04:39:38;;;;;;;5.97;3.78;;;;;;;17.27;60.48;98145.88;2084578;28;20830;-69
2023/12/06 04:40:40;;;;;;;5.45;3.85;;;;;;;17.32;60.23;98152.28;2082269;28;20055;-68
2023/12/06 04:41:41;;;;;;;5.97;4.32;;;;;;;17.35;60.00;98143.81;2082634;28;20117;-69
2023/12/06 04:42:43;;;;;;;;;;;;;;;17.29;60.38;98147.34;2083735;28;20052;-68
2023/12/06 04:43:44;;;;;;;5.53;3.42;;;;;;;17.34;60.31;98146.72;2084318;28;19928;-68
2023/12/06 04:44:46;;;;;;;;;;;;;;;17.31;60.35;98141.78;2085665;28;20045;-67
2023/12/06 04:45:48;;;;;;;5.28;3.22;;;;;;;17.38;60.38;98147.94;2082135;28;20791;-67
2023/12/06 04:46:49;;;;;;;5.10;3.67;;;;;;;17.45;60.18;98148.78;2082329;28;20057;-67
2023/12/06 04:47:50;;;;;;;;;;;;;;;17.41;60.23;98153.72;2084474;28;20103;-66
2023/12/06 04:48:51;;;;;;;5.68;3.03;;;;;;;17.47;60.22;98152.09;2081286;28;19986;-67
2023/12/06 04:49:52;;;;;;;;;;;;;;;17.45;60.46;98153.31;2082442;28;20053;-67
2023/12/06 04:50:54;;;;;;;4.70;3.13;;;;;;;17.49;60.34;98151.84;2085779;28;19916;-67
2023/12/06 04:51:55;;;;;;;3.83;3.22;;;;;;;17.53;60.24;98156.59;2081751;28;20048;-68
2023/12/06 04:52:57;;;;;;;;;;;;;;;17.51;60.46;98164.03;2084195;28;20042;-67
2023/12/06 04:53:58;;;;;;;5.85;3.53;;;;;;;17.57;60.26;98162.38;2081057;28;19925;-68
2023/12/06 04:55:04;;;;;;;;;;;;;;;17.54;60.27;98157.44;2081304;28;20546;-67
2023/12/06 04:56:06;;;;;;;4.65;3.30;;;;;;;17.60;60.15;98161.94;2080458;28;19929;-67
2023/12/06 04:57:08;;;;;;;4.13;2.85;;;;;;;17.64;60.00;98165.88;2083185;28;20049;-68
2023/12/06 04:58:09;;;;;;;3.85;3.05;;;;;;;17.70;60.02;98162.34;2085916;28;20123;-67
2023/12/06 04:59:11;;;;;;;;;;;;;;;17.67;60.20;98160.09;2080593;28;20489;-68
2023/12/06 05:00:14;;;;;;;4.03;3.33;;;;;;;17.72;60.18;98159.44;2083606;28;20476;-67